Home > Products > Valid Products > TAF

000
FTUS43 KABR 252300
TAFABR
TAF
KABR 252321Z 2600/2624 12005KT P6SM SKC
     FM261000 14010KT P6SM SKC WS018/19035KT
     FM261400 16016G22KT P6SM SCT250=



000
FTUS43 KABR 252300
TAFATY
TAF
KATY 252321Z 2600/2624 12005KT P6SM SKC
     FM261200 14008KT P6SM SKC WS013/19030KT
     FM261500 16015G21KT P6SM SCT250=



000
FTUS43 KABR 252300
TAFMBG
TAF
KMBG 252321Z 2600/2624 13005KT P6SM SKC
     FM260600 13015KT P6SM SKC WS018/19035KT
     FM261500 17015KT P6SM SKC=



000
FTUS43 KABR 252300
TAFPIR
TAF
KPIR 252321Z 2600/2624 12009KT P6SM SKC
     FM260600 13010KT P6SM SKC WS018/19035KT
     FM261500 17015KT P6SM SKC=



000
FTUS43 KABR 251700
TAFPIR
TAF
KPIR 251728Z 2518/2618 13006KT P6SM SKC
     FM260100 13010KT P6SM SKC WS018/18035KT
     FM261500 17015G25KT P6SM SKC=



000
FTUS43 KABR 251700
TAFABR
TAF
KABR 251728Z 2518/2618 02006KT P6SM SKC
     FM252300 11006KT P6SM SKC
     FM260500 14010KT P6SM SKC WS018/17040KT
     FM261400 16016G22KT P6SM SCT250=



000
FTUS43 KABR 251700
TAFATY
TAF
KATY 251728Z 2518/2618 33006KT P6SM SKC
     FM252300 VRB06KT P6SM SKC
     FM260900 14008KT P6SM SKC WS013/17035KT
     FM261400 16015G21KT P6SM SCT250=



000
FTUS43 KABR 251700
TAFMBG
TAF
KMBG 251728Z 2518/2618 VRB06KT P6SM SKC
     FM260100 13008KT P6SM SKC WS018/18035KT
     FM261500 17015G25KT P6SM SKC=



000
FTUS43 KABR 251100
TAFATY
TAF
KATY 251128Z 2512/2612 VRB05KT P6SM BKN120
     FM261000 15011KT P6SM SKC=



000
FTUS43 KABR 251100
TAFPIR
TAF
KPIR 251128Z 2512/2612 31005KT P6SM BKN120
     FM252100 11011KT P6SM SKC=



000
FTUS43 KABR 251100
TAFMBG
TAF
KMBG 251128Z 2512/2612 VRB03KT P6SM FEW120
     FM260200 14015KT P6SM SCT200=



000
FTUS43 KABR 251100
TAFABR
TAF
KABR 251128Z 2512/2612 VRB04KT P6SM BKN120
     FM261000 14012KT P6SM SKC=



000
FTUS43 KABR 251100
TAFMBG
TAF
KMBG 251128Z 2512/2612 VRB03KT P6SM FEW120
     FM260200 14015KT P6SM SCT200=



000
FTUS43 KABR 251100
TAFABR
TAF
KABR 251128Z 2512/2612 VRB04KT P6SM BKN120
     FM261000 14012KT P6SM SKC=



000
FTUS43 KABR 251100
TAFATY
TAF
KATY 251128Z 2512/2612 VRB05KT P6SM BKN120
     FM261000 15011KT P6SM SKC=



000
FTUS43 KABR 251100
TAFPIR
TAF
KPIR 251128Z 2512/2612 31005KT P6SM BKN120
     FM252100 11011KT P6SM SKC=



000
FTUS43 KABR 250500
TAFABR
TAF
KABR 250525Z 2506/2606 32010KT P6SM BKN120
     FM252100 07004KT P6SM SKC=



000
FTUS43 KABR 250500
TAFATY
TAF
KATY 250525Z 2506/2606 VRB05KT P6SM BKN120=



000
FTUS43 KABR 250500
TAFPIR
TAF
KPIR 250525Z 2506/2606 35011KT P6SM BKN120
     FM251800 12008KT P6SM SKC=



000
FTUS43 KABR 250500
TAFMBG
TAF
KMBG 250525Z 2506/2606 30004KT P6SM FEW120
     FM251800 13008KT P6SM SKC=



000
FTUS43 KABR 242300
TAFATY
TAF
KATY 242322Z 2500/2524 26005KT P6SM BKN110
     FM251500 31005KT P6SM SCT100=



000
FTUS43 KABR 242300
TAFMBG
TAF
KMBG 242322Z 2500/2524 31008KT P6SM BKN120
     FM251800 11004KT P6SM SKC=



000
FTUS43 KABR 242300
TAFPIR
TAF
KPIR 242322Z 2500/2524 35008KT P6SM SCT120
     FM251500 09004KT P6SM SKC=



000
FTUS43 KABR 242300
TAFABR
TAF
KABR 242322Z 2500/2524 29008KT P6SM BKN120
     FM251500 32004KT P6SM SCT100=



000
FTUS43 KABR 242000 AAA
TAFMBG
TAF AMD
KMBG 242042Z 2421/2518 33011KT P6SM SKC
     FM250100 VRB03KT P6SM SKC=



000
FTUS43 KABR 242000 AAA
TAFABR
TAF AMD
KABR 242042Z 2421/2518 30011KT P6SM SKC
     FM250100 27005KT P6SM SCT200=



000
FTUS43 KABR 242000 AAA
TAFATY
TAF AMD
KATY 242042Z 2421/2518 30006KT P6SM SKC
     FM250100 27005KT P6SM SCT200=



000
FTUS43 KABR 242000 AAA
TAFPIR
TAF AMD
KPIR 242042Z 2421/2518 28006KT P6SM SKC
     FM250100 VRB03KT P6SM SKC=



000
FTUS43 KABR 241700
TAFPIR
TAF
KPIR 241737Z 2418/2518 30009KT P6SM SCT250
     FM250100 VRB03KT P6SM SKC=



000
FTUS43 KABR 241700
TAFMBG
TAF
KMBG 241737Z 2418/2518 31010KT P6SM SCT250
     FM250100 VRB03KT P6SM SKC=



000
FTUS43 KABR 241700
TAFATY
TAF
KATY 241737Z 2418/2518 29011KT P6SM BKN200
     FM250100 27005KT P6SM SCT200=



000
FTUS43 KABR 241700
TAFABR
TAF
KABR 241737Z 2418/2518 29011KT P6SM BKN200
     FM250100 27005KT P6SM SCT200=



000
FTUS43 KABR 241300 AAB
TAFATY
TAF AMD
KATY 241356Z 2414/2512 22005KT 2SM BR BKN200
      TEMPO 2414/2415 1/2SM FG
     FM241500 26010KT P6SM SKC
     FM242300 28005KT P6SM SKC=



000
FTUS43 KABR 241300 AAA
TAFATY
TAF AMD
KATY 241324Z 2413/2512 22005KT P6SM BKN200
      TEMPO 2413/2415 2SM BR
     FM241700 26010KT P6SM SKC
     FM242300 28005KT P6SM SKC=



000
FTUS43 KABR 241100
TAFMBG
TAF
KMBG 241124Z 2412/2512 VRB04KT P6SM BKN200
     FM241800 31010KT P6SM SKC
     FM242300 VRB02KT P6SM BKN200=



000
FTUS43 KABR 241100
TAFABR
TAF
KABR 241124Z 2412/2512 VRB03KT 3SM BR BKN200
      TEMPO 2412/2413 5SM BR
     FM241300 VRB04KT P6SM BKN200
     FM241800 28010KT P6SM SKC
     FM242300 30005KT P6SM SKC=



000
FTUS43 KABR 241100
TAFATY
TAF
KATY 241124Z 2412/2512 VRB05KT P6SM BKN200
     FM241800 26010KT P6SM SKC
     FM242300 28005KT P6SM SKC=



000
FTUS43 KABR 241100
TAFPIR
TAF
KPIR 241124Z 2412/2512 VRB03KT P6SM BKN200
     FM241800 31010KT P6SM SKC
     FM242300 VRB03KT P6SM BKN200=



000
FTUS43 KABR 241000 AAA
TAFABR
TAF AMD
KABR 241018Z 2410/2506 VRB03KT P6SM BKN200
      TEMPO 2410/2412 3/4SM BR
     FM241800 27008KT P6SM SKC=



000
FTUS43 KABR 240500
TAFPIR
TAF
KPIR 240523Z 2406/2506 VRB03KT P6SM BKN200
     FM241800 31009KT P6SM SKC=



000
FTUS43 KABR 240500
TAFATY
TAF
KATY 240523Z 2406/2506 15007KT P6SM BKN200
     FM241800 26007KT P6SM SKC=



000
FTUS43 KABR 240500
TAFMBG
TAF
KMBG 240523Z 2406/2506 VRB04KT P6SM BKN200
     FM241800 31009KT P6SM SKC=



000
FTUS43 KABR 240500
TAFABR
TAF
KABR 240523Z 2406/2506 VRB03KT P6SM BKN200
     FM241800 27008KT P6SM SKC=



000
FTUS43 KABR 232300
TAFPIR
TAF
KPIR 232320Z 2400/2424 14004KT P6SM BKN200
     FM241800 30007KT P6SM SKC=



000
FTUS43 KABR 232300
TAFMBG
TAF
KMBG 232320Z 2400/2424 15004KT P6SM BKN200
     FM241500 26004KT P6SM SKC=



000
FTUS43 KABR 232300
TAFABR
TAF
KABR 232320Z 2400/2424 16007KT P6SM BKN200
     FM241700 25008KT P6SM SKC=



000
FTUS43 KABR 232300
TAFATY
TAF
KATY 232320Z 2400/2424 18008KT P6SM BKN200
     FM241800 25007KT P6SM SKC=



000
FTUS43 KABR 232100 AAA
TAFABR
TAF AMD
KABR 232119Z 2321/2418 18011KT P6SM SCT200
     FM240100 17004KT P6SM SCT200
      TEMPO 2408/2412 3SM BR=



000
FTUS43 KABR 231700
TAFPIR
TAF
KPIR 231736Z 2318/2418 23008KT P6SM SCT250
     FM240100 VRB03KT P6SM SCT250=



000
FTUS43 KABR 231700
TAFABR
TAF
KABR 231736Z 2318/2418 21010KT P6SM SKC
     FM240000 17004KT P6SM SCT200
      TEMPO 2408/2412 3SM BR=



000
FTUS43 KABR 231700
TAFMBG
TAF
KMBG 231736Z 2318/2418 20009KT P6SM SCT250
     FM240100 VRB03KT P6SM SCT250=



000
FTUS43 KABR 231700
TAFATY
TAF
KATY 231736Z 2318/2418 19011KT P6SM SKC
     FM240000 18004KT P6SM SCT250
     FM240800 VRB03KT 3SM BR SCT250
      TEMPO 2408/2412 1SM BR
     FM241400 18006KT P6SM SKC=



000
FTUS43 KABR 231300 AAA
TAFATY
TAF AMD
KATY 231344Z 2314/2412 20011KT P6SM SCT250
     FM240000 VRB05KT P6SM BKN250=



000
FTUS43 KABR 231100
TAFMBG
TAF
KMBG 231123Z 2312/2412 VRB05KT P6SM SKC
     FM231600 20009KT P6SM SCT250
     FM240000 VRB05KT P6SM BKN250=



000
FTUS43 KABR 231100
TAFPIR
TAF
KPIR 231123Z 2312/2412 VRB05KT P6SM SKC
     FM231600 21009KT P6SM SCT250
     FM240000 VRB05KT P6SM BKN250=



000
FTUS43 KABR 231100
TAFATY
TAF
KATY 231123Z 2312/2412 VRB05KT 2SM BR SCT001
      TEMPO 2312/2315 3/4SM BR VV001
     FM231700 21011KT P6SM SCT250
     FM240000 VRB05KT P6SM BKN250=



000
FTUS43 KABR 231100
TAFABR
TAF
KABR 231123Z 2312/2412 VRB05KT P6SM SKC
     FM231700 21010KT P6SM SCT250
     FM240000 VRB05KT P6SM BKN250=



000
FTUS43 KABR 231000 AAA
TAFABR
TAF AMD
KABR 231002Z 2310/2406 VRB05KT P6SM SKC=



000
FTUS43 KABR 231000 AAC
TAFATY
TAF AMD
KATY 231001Z 2310/2406 VRB05KT P6SM SKC
      TEMPO 2311/2314 1SM BR BKN001
     FM231400 23005KT P6SM SKC=



000
FTUS43 KABR 231000 AAC
TAFATY
TAF AMD
KATY 231001Z 2310/2406 VRB05KT P6SM SKC
      TEMPO 2311/2314 1SM BR BKN001
     FM231400 23005KT P6SM SKC=



000
FTUS43 KABR 230900 AAB
TAFATY
TAF AMD
KATY 230933Z 2310/2406 VRB05KT 3SM BR SCT001
      TEMPO 2310/2313 1/2SM FG VV001
     FM231400 23005KT P6SM SKC=



000
FTUS43 KABR 230600 AAA
TAFATY
TAF AMD
KATY 230634Z 2307/2406 VRB05KT P6SM SKC
     FM231000 VRB04KT 2SM BR SKC
     FM231500 23005KT P6SM SKC=



000
FTUS43 KABR 230500
TAFPIR
TAF
KPIR 230528Z 2306/2406 VRB05KT P6SM SKC
     FM231800 20008KT P6SM SKC=



000
FTUS43 KABR 230500
TAFATY
TAF
KATY 230528Z 2306/2406 21006KT 4SM BR SCT001
      TEMPO 2306/2308 1SM BR
     FM230800 VRB04KT 1SM BR SKC
      TEMPO 2308/2312 1/4SM FG VV001
     FM231500 23005KT P6SM SKC=



000
FTUS43 KABR 230500
TAFMBG
TAF
KMBG 230528Z 2306/2406 VRB05KT P6SM SKC
     FM231800 20009KT P6SM SKC=



000
FTUS43 KABR 230500
TAFABR
TAF
KABR 230528Z 2306/2406 VRB05KT P6SM SKC
      TEMPO 2310/2313 3SM BR=



    US Dept of Commerce
    National Oceanic and Atmospheric Administration
    National Weather Service
    1325 East West Highway
    Silver Spring, MD 20910
    Page Author: NWS Internet Services Team
Disclaimer
Information Quality
Credits
Glossary
Privacy Policy
Freedom of Information Act (FOIA)
About Us
Career Opportunities